Time;durP1;ratioP1;P1;durP2;ratioP2;P2;SDS_P1;SDS_P2;PMS_P1;PMS_P2;Temp;Humidity;BMP_temperature;BMP_pressure;BME280_temperature;BME280_humidity;BME280_pressure;Samples;Min_cycle;Max_cycle;Signal;HPM_P1;HPM_P2
2023/05/19 00:02:14;;;;;;;;;3.25;1.50;;;;;7.52;100.00;99310.00;4762661;28;104040;-71
2023/05/19 00:04:53;;;;;;;;;3.25;2.00;;;;;7.65;100.00;99325.69;4802544;29;102208;-72
2023/05/19 00:07:38;;;;;;;;;3.25;2.00;;;;;7.60;100.00;99323.47;4818567;29;102442;-72
2023/05/19 00:10:23;;;;;;;;;4.25;3.75;;;;;7.49;100.00;99310.31;4816478;28;102945;-72
2023/05/19 00:13:09;;;;;;;;;4.00;3.25;;;;;7.55;100.00;99318.59;4809508;29;108235;-72
2023/05/19 00:15:43;;;;;;;;;2.25;2.00;;;;;7.52;100.00;99315.38;4815449;29;101877;-72
2023/05/19 00:18:12;;;;;;;;;2.50;2.50;;;;;7.55;100.00;99304.28;4817945;28;102317;-72
2023/05/19 00:20:40;;;;;;;;;2.50;2.50;;;;;7.59;100.00;99316.41;4820149;28;102474;-72
2023/05/19 00:23:07;;;;;;;;;1.00;1.00;;;;;7.62;100.00;99310.69;4801234;28;104066;-72
2023/05/19 00:25:34;;;;;;;;;1.75;1.75;;;;;7.63;100.00;99317.75;4813502;29;102157;-72
2023/05/19 00:28:01;;;;;;;;;2.75;1.00;;;;;7.61;100.00;99309.00;4813345;29;102386;-73
2023/05/19 00:30:29;;;;;;;;;1.75;1.75;;;;;7.65;100.00;99307.69;4816845;28;102048;-72
2023/05/19 00:32:56;;;;;;;;;1.00;0.75;;;;;7.70;100.00;99315.25;4815233;28;104025;-72
2023/05/19 00:35:23;;;;;;;;;2.25;2.25;;;;;7.66;100.00;99312.03;4814059;28;102221;-72
2023/05/19 00:37:50;;;;;;;;;2.00;2.00;;;;;7.64;100.00;99300.59;4817204;28;102145;-72
2023/05/19 00:40:18;;;;;;;;;3.25;2.25;;;;;7.60;100.00;99301.94;4815757;28;102364;-72
2023/05/19 00:42:45;;;;;;;;;2.00;2.00;;;;;7.58;100.00;99296.72;4819139;28;104021;-72
2023/05/19 00:45:12;;;;;;;;;2.00;2.00;;;;;7.52;100.00;99300.06;4811930;28;102251;-72
2023/05/19 00:47:39;;;;;;;;;2.75;2.75;;;;;7.56;100.00;99300.59;4812577;28;101877;-73
2023/05/19 00:50:06;;;;;;;;;4.00;2.50;;;;;7.58;100.00;99303.94;4820574;28;102085;-72
2023/05/19 00:52:33;;;;;;;;;2.25;2.25;;;;;7.59;100.00;99306.47;4817736;28;104034;-72
2023/05/19 00:55:00;;;;;;;;;3.75;3.00;;;;;7.56;100.00;99295.22;4811685;28;102307;-73
2023/05/19 00:57:27;;;;;;;;;3.00;2.75;;;;;7.55;100.00;99294.38;4813019;29;102255;-72
2023/05/19 00:59:55;;;;;;;;;2.50;2.50;;;;;7.58;100.00;99301.25;4815231;28;102210;-73
2023/05/19 01:02:22;;;;;;;;;2.00;1.00;;;;;7.61;100.00;99300.91;4815208;28;104170;-72
2023/05/19 01:05:05;;;;;;;;;2.00;2.00;;;;;7.64;100.00;99295.22;4815912;28;102074;-72
2023/05/19 01:07:52;;;;;;;;;3.00;2.75;;;;;7.65;100.00;99299.59;4817334;28;101750;-72
2023/05/19 01:10:40;;;;;;;;;2.00;1.00;;;;;7.69;100.00;99290.19;4816692;28;102565;-73
2023/05/19 01:13:24;;;;;;;;;2.00;1.25;;;;;7.65;100.00;99291.53;4816664;28;107388;-73
2023/05/19 01:16:18;;;;;;;;;2.00;2.00;;;;;7.67;100.00;99292.19;4818574;28;102912;-73
2023/05/19 01:19:39;;;;;;;;;2.50;2.50;;;;;7.72;100.00;99289.84;4817644;28;102351;-72
2023/05/19 01:22:21;;;;;;;;;1.00;1.00;;;;;7.72;100.00;99284.47;4817836;28;102304;-73
2023/05/19 01:25:20;;;;;;;;;4.00;2.00;;;;;7.68;100.00;99282.28;4816824;28;108814;-72
2023/05/19 01:28:06;;;;;;;;;4.25;2.75;;;;;7.66;100.00;99279.72;4812421;28;102304;-71
2023/05/19 01:30:37;;;;;;;;;4.00;2.25;;;;;7.64;100.00;99281.78;4822885;28;102137;-73
2023/05/19 01:33:08;;;;;;;;;2.50;2.50;;;;;7.60;100.00;99283.09;4818501;28;102024;-73
2023/05/19 01:35:37;;;;;;;;;4.00;3.00;;;;;7.52;100.00;99288.47;4821945;28;104216;-73
2023/05/19 01:38:08;;;;;;;;;5.00;3.00;;;;;7.52;100.00;99278.53;4822205;28;101863;-73
2023/05/19 01:40:40;;;;;;;;;4.00;4.00;;;;;7.54;100.00;99275.69;4822863;28;103295;-73
2023/05/19 01:43:10;;;;;;;;;7.00;3.00;;;;;7.54;100.00;99273.84;4823200;28;102463;-73
2023/05/19 01:45:38;;;;;;;;;2.25;2.25;;;;;7.53;100.00;99277.53;4821527;28;104130;-73
2023/05/19 01:48:06;;;;;;;;;2.00;2.00;;;;;7.57;100.00;99272.66;4821464;28;102778;-73
2023/05/19 01:50:36;;;;;;;;;4.50;3.75;;;;;7.53;100.00;99266.78;4824450;29;102413;-73
2023/05/19 01:53:03;;;;;;;;;4.25;3.00;;;;;7.57;100.00;99269.97;4823105;28;102501;-73
2023/05/19 01:55:31;;;;;;;;;4.00;3.25;;;;;7.56;100.00;99276.38;4825413;28;104147;-73
2023/05/19 01:58:16;;;;;;;;;2.25;2.25;;;;;7.57;100.00;99278.88;4821299;28;102091;-72
2023/05/19 02:01:04;;;;;;;;;4.00;3.25;;;;;7.55;100.00;99277.38;4821549;28;102427;-73
2023/05/19 02:03:52;;;;;;;;;3.50;3.50;;;;;7.55;100.00;99267.47;4823004;29;103106;-73
2023/05/19 02:06:29;;;;;;;;;7.00;6.50;;;;;7.56;100.00;99271.00;4818987;28;109039;-73
2023/05/19 02:09:04;;;;;;;;;4.00;4.00;;;;;7.51;100.00;99262.56;4820230;29;105550;-73
2023/05/19 02:11:41;;;;;;;;;4.75;3.25;;;;;7.52;100.00;99262.38;4821948;29;101929;-73
2023/05/19 02:14:16;;;;;;;;;4.75;4.00;;;;;7.53;100.00;99264.09;4822731;28;102832;-73
2023/05/19 02:16:46;;;;;;;;;3.50;2.75;;;;;7.55;100.00;99259.38;4823274;28;108692;-73
2023/05/19 02:19:35;;;;;;;;;4.00;3.00;;;;;7.15;100.00;99179.47;4820548;29;102253;-73
2023/05/19 02:22:02;;;;;;;;;4.75;4.00;;;;;7.52;100.00;99248.13;4816629;29;102115;-73
2023/05/19 02:24:29;;;;;;;;;6.50;5.50;;;;;7.20;100.00;99180.81;4819352;28;102587;-73
2023/05/19 02:26:56;;;;;;;;;3.50;3.50;;;;;7.51;100.00;99239.19;4821797;28;104306;-73
2023/05/19 02:29:23;;;;;;;;;2.00;2.00;;;;;7.55;100.00;99232.47;4821705;29;102269;-72
2023/05/19 02:31:50;;;;;;;;;1.25;1.00;;;;;7.62;100.00;99236.16;4818011;28;102060;-72
2023/05/19 02:34:17;;;;;;;;;2.50;2.00;;;;;7.64;100.00;99238.72;4824739;28;102116;-71
2023/05/19 02:36:44;;;;;;;;;3.00;2.00;;;;;7.60;100.00;99237.38;4825112;28;108825;-72
2023/05/19 02:39:11;;;;;;;;;2.00;1.25;;;;;7.61;100.00;99245.25;4817816;29;102307;-73
2023/05/19 02:41:38;;;;;;;;;2.75;2.00;;;;;7.61;100.00;99239.03;4823765;29;102167;-72
2023/05/19 02:44:06;;;;;;;;;1.00;1.00;;;;;7.58;100.00;99233.97;4822391;28;102363;-73
2023/05/19 02:46:33;;;;;;;;;1.00;1.00;;;;;7.57;100.00;99234.97;4821534;28;104094;-73
2023/05/19 02:49:00;;;;;;;;;2.25;1.75;;;;;7.58;100.00;99240.22;4822703;29;102418;-73
2023/05/19 02:51:27;;;;;;;;;1.00;1.00;;;;;7.35;100.00;99212.25;4820146;28;102400;-73
2023/05/19 02:53:54;;;;;;;;;2.50;2.00;;;;;7.51;100.00;99249.13;4817247;28;102100;-73
2023/05/19 02:56:21;;;;;;;;;6.50;4.00;;;;;7.42;100.00;99252.81;4817182;29;104026;-73
2023/05/19 02:58:48;;;;;;;;;6.00;4.00;;;;;7.47;100.00;99250.47;4822276;29;102201;-73
2023/05/19 03:01:15;;;;;;;;;4.00;3.00;;;;;7.44;100.00;99248.94;4818436;28;102133;-73
2023/05/19 03:03:42;;;;;;;;;7.50;4.25;;;;;7.47;100.00;99263.91;4818915;29;102107;-73
2023/05/19 03:06:09;;;;;;;;;2.75;2.00;;;;;7.48;100.00;99250.28;4821126;29;104033;-73
2023/05/19 03:08:36;;;;;;;;;1.75;1.00;;;;;7.48;100.00;99254.81;4818362;29;102207;-73
2023/05/19 03:11:07;;;;;;;;;3.75;3.75;;;;;7.48;100.00;99244.03;4812690;28;102070;-73
2023/05/19 03:13:34;;;;;;;;;3.50;2.50;;;;;7.47;100.00;99240.53;4817380;29;103076;-73
2023/05/19 03:16:02;;;;;;;;;5.25;5.25;;;;;7.50;100.00;99239.34;4817651;29;103677;-73
2023/05/19 03:18:29;;;;;;;;;1.00;1.00;;;;;7.52;100.00;99240.06;4818216;29;102299;-73
2023/05/19 03:20:56;;;;;;;;;2.00;1.25;;;;;7.53;100.00;99245.25;4818930;28;102077;-72
2023/05/19 03:23:23;;;;;;;;;3.00;2.00;;;;;7.60;100.00;99251.66;4821632;28;102151;-73
2023/05/19 03:25:50;;;;;;;;;2.00;1.25;;;;;7.63;100.00;99254.00;4819533;29;103954;-72
2023/05/19 03:28:17;;;;;;;;;2.75;2.50;;;;;7.60;100.00;99257.03;4821615;28;106670;-72
2023/05/19 03:30:44;;;;;;;;;4.00;4.00;;;;;7.62;100.00;99251.47;4817811;28;102339;-72
2023/05/19 03:33:11;;;;;;;;;3.50;2.75;;;;;7.64;100.00;99254.84;4813166;28;102322;-73
2023/05/19 03:35:38;;;;;;;;;4.50;4.00;;;;;7.64;100.00;99249.47;4813060;29;104232;-73
2023/05/19 03:38:05;;;;;;;;;5.00;5.00;;;;;7.60;100.00;99253.50;4803955;29;102422;-73
2023/05/19 03:40:32;;;;;;;;;11.00;9.25;;;;;7.55;100.00;99251.31;4819147;28;109890;-73
2023/05/19 03:43:00;;;;;;;;;9.25;7.00;;;;;7.61;100.00;99255.16;4820920;28;102199;-73
2023/05/19 03:45:27;;;;;;;;;6.00;5.00;;;;;7.70;100.00;99250.66;4819323;28;104303;-73
2023/05/19 03:47:54;;;;;;;;;4.00;3.50;;;;;7.74;100.00;99247.47;4821630;28;102311;-72
2023/05/19 03:50:22;;;;;;;;;4.75;4.75;;;;;7.63;100.00;99229.78;4803617;29;102335;-72
2023/05/19 03:52:49;;;;;;;;;5.00;3.00;;;;;7.81;100.00;99245.78;4821609;28;102139;-72
2023/05/19 03:55:18;;;;;;;;;2.50;2.00;;;;;7.92;100.00;99247.31;4818071;28;104146;-73
2023/05/19 03:57:46;;;;;;;;;3.50;2.00;;;;;7.92;100.00;99241.94;4820892;28;102368;-73
2023/05/19 04:00:13;;;;;;;;;2.25;2.25;;;;;7.92;100.00;99248.16;4822780;28;103839;-73
2023/05/19 04:02:40;;;;;;;;;3.00;3.00;;;;;8.05;100.00;99258.41;4821006;29;102069;-72
2023/05/19 04:05:08;;;;;;;;;2.50;2.50;;;;;8.14;100.00;99261.94;4818050;28;103789;-73
2023/05/19 04:07:35;;;;;;;;;1.00;1.00;;;;;8.23;100.00;99264.47;4819738;29;102284;-73
2023/05/19 04:10:04;;;;;;;;;2.00;1.25;;;;;8.26;100.00;99263.25;4820801;29;102034;-73
2023/05/19 04:12:31;;;;;;;;;1.50;1.50;;;;;8.27;100.00;99262.25;4822820;28;102073;-73
2023/05/19 04:14:58;;;;;;;;;3.50;3.00;;;;;8.27;100.00;99264.97;4818534;29;104075;-73
2023/05/19 04:17:26;;;;;;;;;3.00;3.00;;;;;8.33;100.00;99269.72;4821015;29;102182;-73
2023/05/19 04:19:54;;;;;;;;;3.00;3.00;;;;;8.43;100.00;99268.50;4819079;28;104886;-73
2023/05/19 04:22:21;;;;;;;;;4.00;2.00;;;;;8.48;100.00;99270.66;4822342;28;102004;-72
2023/05/19 04:24:50;;;;;;;;;1.25;1.00;;;;;8.57;100.00;99272.34;4820442;29;103902;-72
2023/05/19 04:27:18;;;;;;;;;3.00;3.00;;;;;8.57;100.00;99266.94;4819313;28;101834;-73
2023/05/19 04:29:47;;;;;;;;;2.00;2.00;;;;;8.58;100.00;99260.56;4815191;29;102250;-73
2023/05/19 04:32:16;;;;;;;;;6.00;5.00;;;;;8.53;100.00;99254.84;4815365;28;104429;-73
2023/05/19 04:34:46;;;;;;;;;4.25;4.00;;;;;8.60;100.00;99268.47;4818899;28;108826;-73
2023/05/19 04:37:16;;;;;;;;;4.00;3.25;;;;;8.71;100.00;99265.41;4820747;28;102323;-72
2023/05/19 04:39:44;;;;;;;;;2.00;2.00;;;;;8.81;100.00;99266.88;4817609;29;102245;-73
2023/05/19 04:42:12;;;;;;;;;2.00;2.00;;;;;8.90;100.00;99268.53;4824126;28;101996;-73
2023/05/19 04:44:39;;;;;;;;;3.50;3.00;;;;;8.82;100.00;99257.78;4818160;28;104021;-73
2023/05/19 04:47:07;;;;;;;;;3.50;3.00;;;;;8.96;100.00;99265.13;4819070;29;102341;-73
2023/05/19 04:49:37;;;;;;;;;3.50;3.50;;;;;8.95;100.00;99262.63;4819613;28;103893;-73
2023/05/19 04:52:11;;;;;;;;;3.25;3.25;;;;;9.00;100.00;99276.44;4822726;29;102176;-73
2023/05/19 04:54:39;;;;;;;;;4.00;4.00;;;;;9.00;100.00;99271.03;4817208;29;103856;-73
2023/05/19 04:57:06;;;;;;;;;2.25;2.00;;;;;9.07;100.00;99282.81;4818371;29;102401;-73
2023/05/19 04:59:33;;;;;;;;;2.00;2.00;;;;;9.06;100.00;99269.47;4820831;28;102469;-73
2023/05/19 05:02:00;;;;;;;;;5.00;5.00;;;;;9.04;100.00;99271.53;4821159;29;101995;-73
2023/05/19 05:04:27;;;;;;;;;2.00;2.00;;;;;9.16;100.00;99275.50;4822663;28;104269;-73
2023/05/19 05:06:54;;;;;;;;;4.00;4.00;;;;;9.25;100.00;99277.16;4824496;28;101980;-73
2023/05/19 05:09:21;;;;;;;;;2.00;2.00;;;;;9.26;100.00;99276.16;4822176;28;101814;-72
2023/05/19 05:11:48;;;;;;;;;3.75;2.25;;;;;9.25;100.00;99269.91;4824695;29;102357;-72
2023/05/19 05:14:15;;;;;;;;;3.00;3.00;;;;;9.32;100.00;99267.34;4823809;29;108698;-72
2023/05/19 05:16:43;;;;;;;;;5.75;5.00;;;;;9.30;100.00;99280.16;4823787;28;102541;-73
2023/05/19 05:19:10;;;;;;;;;3.00;3.00;;;;;9.46;100.00;99269.28;4822585;28;102447;-72
2023/05/19 05:21:38;;;;;;;;;3.50;2.50;;;;;9.58;100.00;99275.13;4824318;28;102250;-72
2023/05/19 05:24:05;;;;;;;;;2.25;2.25;;;;;9.67;100.00;99277.59;4824680;28;104025;-72
2023/05/19 05:26:34;;;;;;;;;4.00;4.00;;;;;9.69;100.00;99272.00;4823364;28;102782;-72
2023/05/19 05:29:02;;;;;;;;;3.25;2.00;;;;;9.70;100.00;99285.34;4824642;28;102168;-72
2023/05/19 05:31:30;;;;;;;;;3.75;3.25;;;;;9.68;100.00;99281.97;4824438;28;102193;-72
2023/05/19 05:33:57;;;;;;;;;5.00;2.00;;;;;9.60;100.00;99282.03;4822470;28;104177;-73
2023/05/19 05:36:24;;;;;;;;;3.00;3.00;;;;;9.56;100.00;99282.56;4821755;28;101914;-73
2023/05/19 05:38:51;;;;;;;;;3.00;3.00;;;;;9.57;100.00;99274.28;4820575;29;102287;-72
2023/05/19 05:41:18;;;;;;;;;6.00;4.75;;;;;9.48;100.00;99279.91;4826149;28;102202;-72
2023/05/19 05:43:45;;;;;;;;;6.00;5.00;;;;;9.48;100.00;99280.75;4823749;29;108681;-72
2023/05/19 05:46:12;;;;;;;;;6.00;6.00;;;;;9.51;100.00;99285.78;4821114;28;102863;-72
2023/05/19 05:48:41;;;;;;;;;4.00;4.00;;;;;9.60;100.00;99286.56;4821929;28;101980;-72
2023/05/19 05:51:08;;;;;;;;;4.75;4.00;;;;;9.65;100.00;99287.72;4824747;28;102303;-72
2023/05/19 05:53:43;;;;;;;;;5.00;3.00;;;;;9.66;100.00;99284.03;4823172;28;104037;-72
2023/05/19 05:56:11;;;;;;;;;4.25;3.50;;;;;9.72;100.00;99298.66;4822138;28;102582;-72
2023/05/19 05:58:39;;;;;;;;;5.00;3.00;;;;;9.65;100.00;99285.03;4821730;28;102136;-73
2023/05/19 06:01:09;;;;;;;;;4.75;4.00;;;;;9.69;100.00;99285.50;4823850;28;102164;-72
2023/05/19 06:03:41;;;;;;;;;3.00;3.00;;;;;9.75;100.00;99274.84;4820560;28;104033;-72
2023/05/19 06:06:08;;;;;;;;;4.75;4.50;;;;;9.79;100.00;99295.06;4823090;29;101987;-72
2023/05/19 06:08:36;;;;;;;;;2.75;2.00;;;;;9.84;100.00;99289.13;4821882;28;103575;-73
2023/05/19 06:11:08;;;;;;;;;4.00;3.25;;;;;9.93;100.00;99292.59;4823124;29;102849;-73
2023/05/19 06:13:35;;;;;;;;;2.00;2.00;;;;;9.97;100.00;99296.63;4821225;28;104052;-73
2023/05/19 06:16:03;;;;;;;;;3.50;2.75;;;;;9.96;100.00;99297.63;4823114;28;102139;-73
2023/05/19 06:18:30;;;;;;;;;8.00;6.00;;;;;9.69;100.00;99289.06;4822261;28;102364;-73
2023/05/19 06:20:57;;;;;;;;;7.00;4.00;;;;;9.89;100.00;99304.78;4823812;28;101979;-72
2023/05/19 06:23:25;;;;;;;;;4.00;3.75;;;;;9.96;100.00;99295.78;4821241;28;107237;-72
2023/05/19 06:25:52;;;;;;;;;5.00;5.00;;;;;10.12;100.00;99317.28;4819808;28;102737;-72
2023/05/19 06:28:19;;;;;;;;;4.25;4.00;;;;;10.22;100.00;99317.91;4822603;29;102195;-72
2023/05/19 06:30:46;;;;;;;;;6.25;4.25;;;;;10.08;100.00;99315.13;4824039;28;102268;-73
2023/05/19 06:33:13;;;;;;;;;4.25;4.25;;;;;10.24;100.00;99309.63;4814805;28;104013;-72
2023/05/19 06:35:40;;;;;;;;;4.25;3.00;;;;;10.40;100.00;99308.66;4820465;28;102244;-73
2023/05/19 06:38:07;;;;;;;;;4.00;4.00;;;;;10.45;99.48;99312.47;4821055;28;102196;-72
2023/05/19 06:40:35;;;;;;;;;4.50;4.25;;;;;10.37;100.00;99309.84;4822126;28;102341;-73
2023/05/19 06:43:03;;;;;;;;;4.00;4.00;;;;;10.43;100.00;99309.13;4821195;28;104218;-73
2023/05/19 06:45:30;;;;;;;;;3.00;3.00;;;;;10.52;99.28;99302.63;4822596;28;102399;-73
2023/05/19 06:47:57;;;;;;;;;7.75;6.25;;;;;10.38;99.26;99308.81;4819428;28;102772;-73
2023/05/19 06:50:25;;;;;;;;;5.50;5.00;;;;;10.46;99.24;99299.78;4819869;29;102379;-73
2023/05/19 06:52:52;;;;;;;;;9.25;7.25;;;;;10.42;100.00;99302.03;4816226;28;104694;-74
2023/05/19 06:55:19;;;;;;;;;6.00;5.00;;;;;10.48;100.00;99300.47;4825400;29;101957;-73
2023/05/19 06:57:46;;;;;;;;;6.00;5.00;;;;;10.53;99.61;99304.31;4822151;28;102606;-73
2023/05/19 07:00:13;;;;;;;;;6.00;5.50;;;;;10.56;98.95;99303.94;4820950;28;102081;-73
2023/05/19 07:02:44;;;;;;;;;5.25;4.00;;;;;10.50;98.53;99301.94;4821059;28;104078;-74
2023/05/19 07:05:11;;;;;;;;;6.00;6.00;;;;;10.39;100.00;99307.81;4821137;29;102312;-73
2023/05/19 07:07:38;;;;;;;;;8.00;7.50;;;;;10.39;100.00;99301.56;4822666;28;102037;-73
2023/05/19 07:10:06;;;;;;;;;6.50;4.00;;;;;10.51;100.00;99302.78;4821450;28;102365;-72
2023/05/19 07:12:32;;;;;;;;;7.00;5.00;;;;;10.61;99.32;99308.78;4821204;28;104042;-73
2023/05/19 07:14:59;;;;;;;;;4.75;4.00;;;;;10.73;99.08;99304.59;4820626;28;102382;-73
2023/05/19 07:17:26;;;;;;;;;4.00;4.00;;;;;10.67;98.30;99299.94;4821434;29;102309;-73
2023/05/19 07:19:53;;;;;;;;;3.00;2.50;;;;;10.76;98.64;99308.81;4819570;28;102421;-72
2023/05/19 07:22:21;;;;;;;;;2.75;2.00;;;;;10.83;98.85;99304.34;4811663;28;104085;-72
2023/05/19 07:24:48;;;;;;;;;2.25;2.25;;;;;10.80;98.58;99302.00;4814593;28;102251;-73
2023/05/19 07:27:14;;;;;;;;;5.50;4.00;;;;;10.83;100.00;99304.34;4817937;29;102226;-72
2023/05/19 07:29:42;;;;;;;;;3.00;3.00;;;;;10.87;99.87;99297.53;4818365;28;102054;-70
2023/05/19 07:32:08;;;;;;;;;4.50;4.00;;;;;10.92;98.54;99293.25;4816510;28;104040;-71
2023/05/19 07:34:36;;;;;;;;;5.50;4.00;;;;;10.98;98.62;99297.06;4822317;28;102279;-72
2023/05/19 07:37:03;;;;;;;;;6.25;4.75;;;;;11.08;99.05;99292.19;4820867;29;101956;-73
2023/05/19 07:39:31;;;;;;;;;4.25;4.00;;;;;11.17;97.11;99291.06;4818034;28;102282;-72
2023/05/19 07:41:58;;;;;;;;;4.00;2.25;;;;;11.34;97.21;99297.97;4813298;28;104148;-71
2023/05/19 07:44:25;;;;;;;;;0.00;0.00;;;;;11.39;96.82;99284.69;4820273;29;102631;-72
2023/05/19 07:46:53;;;;;;;;;2.00;2.00;;;;;11.58;96.84;99294.09;4822861;28;102558;-72
2023/05/19 07:49:20;;;;;;;;;3.50;3.50;;;;;11.60;95.67;99294.75;4823919;29;102913;-72
2023/05/19 07:51:47;;;;;;;;;2.00;2.00;;;;;11.67;95.32;99292.09;4819332;28;104051;-72
2023/05/19 07:54:14;;;;;;;;;6.00;5.75;;;;;11.57;96.95;99304.06;4819567;29;101942;-72
2023/05/19 07:56:41;;;;;;;;;4.00;3.50;;;;;11.76;95.44;99299.13;4822523;28;102016;-72
2023/05/19 07:59:09;;;;;;;;;6.75;5.25;;;;;11.51;94.84;99310.28;4820029;28;103095;-72
2023/05/19 08:01:36;;;;;;;;;5.25;3.50;;;;;11.51;95.15;99304.00;4820167;28;104204;-73
2023/05/19 08:04:04;;;;;;;;;4.00;4.00;;;;;11.60;95.72;99314.56;4822589;29;102181;-72
2023/05/19 08:06:31;;;;;;;;;3.50;3.00;;;;;11.67;93.00;99300.22;4818487;29;102657;-72
2023/05/19 08:08:58;;;;;;;;;3.00;3.00;;;;;11.68;93.82;99300.03;4820233;28;102339;-72
2023/05/19 08:11:25;;;;;;;;;5.00;5.00;;;;;11.60;93.47;99309.13;4822377;29;104125;-72
2023/05/19 08:13:52;;;;;;;;;7.00;5.75;;;;;11.48;94.65;99309.81;4823451;29;102776;-69
2023/05/19 08:16:19;;;;;;;;;3.00;3.00;;;;;11.67;94.67;99305.66;4817751;28;102453;-73
2023/05/19 08:18:46;;;;;;;;;5.00;4.00;;;;;11.49;93.83;99308.78;4819864;29;102501;-73
2023/05/19 08:21:13;;;;;;;;;6.00;6.00;;;;;11.53;96.32;99302.78;4816226;28;104123;-70
2023/05/19 08:23:40;;;;;;;;;4.00;4.00;;;;;11.59;96.16;99307.44;4819916;28;102095;-72
2023/05/19 08:26:07;;;;;;;;;4.00;3.25;;;;;11.71;95.22;99315.09;4816896;28;102430;-71
2023/05/19 08:28:34;;;;;;;;;3.00;2.50;;;;;11.61;94.36;99302.69;4814319;28;103053;-72
2023/05/19 08:31:01;;;;;;;;;4.00;3.75;;;;;11.51;94.24;99304.00;4815802;28;103450;-72
2023/05/19 08:33:28;;;;;;;;;4.75;4.50;;;;;11.55;94.83;99300.75;4821073;28;102181;-72
2023/05/19 08:35:56;;;;;;;;;9.00;6.00;;;;;11.45;96.13;99294.78;4819217;28;102173;-70
2023/05/19 08:38:25;;;;;;;;;4.75;4.00;;;;;11.64;96.09;99299.59;4820044;28;102425;-70
2023/05/19 08:40:52;;;;;;;;;8.75;7.50;;;;;11.67;93.38;99292.09;4821947;28;104185;-71
2023/05/19 08:43:19;;;;;;;;;4.25;4.00;;;;;11.91;93.71;99316.19;4818694;28;101993;-70
2023/05/19 08:45:47;;;;;;;;;3.50;3.00;;;;;11.93;93.09;99314.13;4819301;29;102195;-71
2023/05/19 08:48:16;;;;;;;;;7.00;4.25;;;;;11.85;94.15;99314.22;4819725;28;107554;-71
2023/05/19 08:51:22;;;;;;;;;4.75;4.00;;;;;12.04;93.16;99308.19;4819161;28;104055;-72
2023/05/19 08:53:59;;;;;;;;;3.75;3.75;;;;;12.15;92.81;99315.81;4759948;29;102053;-71
2023/05/19 08:56:26;;;;;;;;;4.00;4.00;;;;;12.26;91.50;99309.00;4811232;29;101928;-72
2023/05/19 08:58:59;;;;;;;;;4.50;4.50;;;;;12.25;91.30;99307.31;4821126;29;102441;-71
2023/05/19 09:01:27;;;;;;;;;3.00;3.00;;;;;12.40;89.05;99300.81;4817865;28;104232;-71
2023/05/19 09:03:55;;;;;;;;;4.00;4.00;;;;;12.46;91.56;99310.88;4819256;28;102186;-68
2023/05/19 09:06:22;;;;;;;;;5.75;5.00;;;;;12.48;92.19;99310.66;4821452;29;102310;-70
2023/05/19 09:08:49;;;;;;;;;4.00;3.75;;;;;12.69;90.94;99310.66;4817718;28;102092;-70
2023/05/19 09:11:16;;;;;;;;;3.00;2.00;;;;;12.77;87.63;99307.78;4819234;29;104038;-71
2023/05/19 09:13:43;;;;;;;;;3.00;3.00;;;;;12.76;88.52;99318.81;4816428;28;102000;-71
2023/05/19 09:16:10;;;;;;;;;3.50;2.75;;;;;12.85;87.55;99312.22;4818471;29;102452;-71
2023/05/19 09:18:39;;;;;;;;;2.75;2.75;;;;;12.77;89.70;99315.09;4820451;28;102040;-71
2023/05/19 09:21:09;;;;;;;;;2.00;1.75;;;;;12.92;88.96;99315.84;4820190;29;104155;-71
2023/05/19 09:23:36;;;;;;;;;1.75;1.00;;;;;12.95;87.81;99315.41;4819866;29;102265;-71
2023/05/19 09:26:07;;;;;;;;;3.00;3.00;;;;;12.92;88.22;99326.69;4820638;28;102403;-71
2023/05/19 09:28:35;;;;;;;;;2.00;2.00;;;;;12.96;89.21;99317.09;4821882;29;102044;-71
2023/05/19 09:31:09;;;;;;;;;2.00;2.00;;;;;12.93;89.28;99323.75;4819862;28;104090;-70
2023/05/19 09:33:41;;;;;;;;;2.00;2.00;;;;;12.98;89.19;99323.16;4822653;29;102050;-70
2023/05/19 09:36:11;;;;;;;;;2.00;1.50;;;;;12.88;88.23;99309.09;4818909;29;102526;-71
2023/05/19 09:38:39;;;;;;;;;3.00;1.50;;;;;12.87;88.87;99307.44;4820055;29;102053;-71
2023/05/19 09:41:08;;;;;;;;;1.00;1.00;;;;;12.77;89.27;99312.38;4817700;28;104013;-71
2023/05/19 09:43:35;;;;;;;;;1.50;1.00;;;;;12.89;90.39;99316.22;4822028;29;102385;-70
2023/05/19 09:46:07;;;;;;;;;1.50;0.75;;;;;12.88;90.15;99314.53;4818473;29;102390;-71
2023/05/19 09:48:36;;;;;;;;;2.00;2.00;;;;;12.83;89.49;99306.16;4807008;28;102088;-71
2023/05/19 09:51:06;;;;;;;;;3.25;3.25;;;;;12.66;88.41;99312.91;4821113;28;104060;-70
2023/05/19 09:53:34;;;;;;;;;3.25;3.25;;;;;12.85;89.70;99314.94;4821342;29;102099;-71
2023/05/19 09:56:02;;;;;;;;;5.50;4.25;;;;;12.95;89.81;99313.56;4821196;29;102216;-71
2023/05/19 09:58:33;;;;;;;;;6.00;6.00;;;;;12.77;90.75;99307.78;4820279;28;102264;-71
2023/05/19 10:01:02;;;;;;;;;6.25;5.00;;;;;13.11;89.70;99306.13;4823028;28;104436;-71
2023/05/19 10:03:31;;;;;;;;;4.00;4.00;;;;;13.20;90.33;99313.94;4823679;28;101965;-71
2023/05/19 10:06:00;;;;;;;;;4.00;3.50;;;;;13.20;89.95;99300.34;4823421;29;102146;-72
2023/05/19 10:08:29;;;;;;;;;5.00;5.00;;;;;13.16;87.79;99301.78;4824571;29;102904;-71
2023/05/19 10:10:58;;;;;;;;;4.00;4.00;;;;;13.29;89.68;99301.03;4832909;28;104045;-71
2023/05/19 10:13:27;;;;;;;;;2.00;2.00;;;;;13.44;88.92;99292.75;4824149;28;102411;-70
2023/05/19 10:15:54;;;;;;;;;3.50;3.00;;;;;13.48;87.59;99300.28;4821090;29;102021;-70
2023/05/19 10:18:26;;;;;;;;;7.00;6.50;;;;;13.00;87.87;99309.41;4824169;28;103062;-71
2023/05/19 10:20:56;;;;;;;;;6.75;6.75;;;;;13.12;86.98;99302.41;4821182;28;104019;-72
2023/05/19 10:23:24;;;;;;;;;5.25;4.75;;;;;13.23;88.32;99299.97;4822269;28;102434;-70
2023/05/19 10:25:55;;;;;;;;;7.75;7.00;;;;;13.21;86.82;99299.31;4824620;29;102356;-72
2023/05/19 10:28:26;;;;;;;;;6.00;6.00;;;;;13.33;87.24;99297.69;4823673;29;102450;-71
2023/05/19 10:30:59;;;;;;;;;5.25;5.25;;;;;13.33;88.12;99302.28;4818939;28;108794;-70
2023/05/19 10:33:53;;;;;;;;;4.25;4.00;;;;;13.54;87.53;99296.75;4820687;28;102355;-71
2023/05/19 10:36:47;;;;;;;;;2.50;2.25;;;;;13.59;86.15;99299.72;4817753;28;102174;-71
2023/05/19 10:39:27;;;;;;;;;4.00;3.00;;;;;13.67;84.95;99295.97;4819739;29;102297;-72
2023/05/19 10:42:30;;;;;;;;;2.00;2.00;;;;;13.71;85.41;99294.50;4820525;28;108754;-70
2023/05/19 10:45:15;;;;;;;;;1.00;1.00;;;;;13.77;85.74;99293.72;4816865;28;102565;-71
2023/05/19 10:47:43;;;;;;;;;1.75;1.00;;;;;13.77;86.00;99291.84;4819993;28;103089;-71
2023/05/19 10:50:11;;;;;;;;;1.00;1.00;;;;;13.66;86.84;99286.97;4823579;28;102409;-71
2023/05/19 10:52:39;;;;;;;;;4.75;4.75;;;;;13.39;86.97;99290.63;4818782;28;103664;-71
2023/05/19 10:55:08;;;;;;;;;5.00;5.00;;;;;13.48;87.47;99283.13;4818620;28;102383;-71
2023/05/19 10:57:35;;;;;;;;;6.00;4.75;;;;;13.58;88.42;99275.44;4821425;28;101856;-72
2023/05/19 11:00:25;;;;;;;;;6.50;5.25;;;;;13.48;88.98;99280.41;4821540;28;102277;-71
2023/05/19 11:02:55;;;;;;;;;3.50;3.25;;;;;13.62;86.52;99274.84;4822408;29;108932;-72
2023/05/19 11:05:28;;;;;;;;;0.00;0.00;;;;;13.78;86.44;99284.50;4820104;29;102130;-72
2023/05/19 11:08:04;;;;;;;;;2.25;2.00;;;;;14.02;86.09;99281.22;4819876;29;102293;-72
2023/05/19 11:10:32;;;;;;;;;4.00;3.00;;;;;14.12;86.97;99276.22;4821660;28;102047;-71
2023/05/19 11:12:59;;;;;;;;;4.00;4.00;;;;;14.20;86.11;99284.16;4819531;29;105098;-71
2023/05/19 11:15:27;;;;;;;;;2.00;2.00;;;;;14.37;85.35;99278.34;4822459;29;102093;-71
2023/05/19 11:17:54;;;;;;;;;5.00;5.00;;;;;14.34;81.34;99284.19;4821082;28;102118;-69
2023/05/19 11:20:27;;;;;;;;;4.00;4.00;;;;;14.60;81.62;99286.94;4826005;28;103003;-71
2023/05/19 11:23:01;;;;;;;;;4.25;4.25;;;;;14.57;81.75;99279.19;4817936;29;109959;-71
2023/05/19 11:25:48;;;;;;;;;5.00;4.50;;;;;14.32;83.71;99287.94;4816051;28;103091;-71
2023/05/19 11:28:24;;;;;;;;;5.00;4.25;;;;;14.46;84.20;99287.97;4801031;29;102334;-71
2023/05/19 11:30:53;;;;;;;;;4.50;4.50;;;;;14.48;84.31;99291.34;4822241;29;102376;-72
2023/05/19 11:33:25;;;;;;;;;5.00;5.00;;;;;14.51;83.02;99291.75;4821013;29;108750;-72
2023/05/19 11:35:58;;;;;;;;;3.00;3.00;;;;;14.83;83.74;99295.50;4818085;29;102186;-72
2023/05/19 11:38:27;;;;;;;;;4.00;2.25;;;;;15.09;82.29;99290.00;4813887;29;104548;-71